Closplint, Kentucky
Current Conditions -  °F | °C
As of 12:15 AM on Sunday 21 Dec 2014 (Local Time) from KI35 Reporting Station
Clear Clear  
Wind Chill: 26°   Ceiling: Unl
Heat Index: 32°   Visibility: 10mi
Dew Point: 28°   Wind: 7mph
Humidity: 87%   Direction: 30°NNE
Pressure: 30.23"   Gusts: NA
Location:  36.9°N, 83.07°W
Report Text: KI35 210515Z AUTO 03006KT 10SM CLR 00/M02 A3023 RMK AO1
Loading
Personal Weather Stations






























Interactive Weather Map New forecast layout! Learn more

10-Day Weather Forecast

Advertisements
Track Severe Weather on mobile